sensor_id;sensor_type;location;lat;lon;timestamp;pressure;altitude;pressure_sealevel;temperature;humidity
63819;BME280;49970;54.976;73.248;2023-01-10T00:02:05;101503.47;;;-26.79;62.12
63819;BME280;49970;54.976;73.248;2023-01-10T00:04:31;101513.16;;;-26.82;62.57
63819;BME280;49970;54.976;73.248;2023-01-10T00:06:58;101496.59;;;-26.90;62.18
63819;BME280;49970;54.976;73.248;2023-01-10T00:09:24;101515.47;;;-26.83;62.55
63819;BME280;49970;54.976;73.248;2023-01-10T00:11:50;101507.88;;;-26.85;62.83
63819;BME280;49970;54.976;73.248;2023-01-10T00:14:35;101512.84;;;-26.85;62.56
63819;BME280;49970;54.976;73.248;2023-01-10T00:17:04;101508.59;;;-26.86;62.33
63819;BME280;49970;54.976;73.248;2023-01-10T00:19:31;101497.03;;;-26.94;62.54
63819;BME280;49970;54.976;73.248;2023-01-10T00:22:07;101492.34;;;-27.00;62.57
63819;BME280;49970;54.976;73.248;2023-01-10T00:24:35;101524.31;;;-26.87;62.57
63819;BME280;49970;54.976;73.248;2023-01-10T00:27:11;101529.84;;;-26.89;62.47
63819;BME280;49970;54.976;73.248;2023-01-10T00:29:37;101529.72;;;-26.91;62.38
63819;BME280;49970;54.976;73.248;2023-01-10T00:32:14;101536.16;;;-26.93;62.09
63819;BME280;49970;54.976;73.248;2023-01-10T00:34:45;101495.13;;;-27.23;62.65
63819;BME280;49970;54.976;73.248;2023-01-10T00:37:12;101537.91;;;-27.01;62.63
63819;BME280;49970;54.976;73.248;2023-01-10T00:39:39;101531.06;;;-27.12;62.37
63819;BME280;49970;54.976;73.248;2023-01-10T00:42:05;101536.91;;;-27.11;62.25
63819;BME280;49970;54.976;73.248;2023-01-10T00:45:00;101549.03;;;-27.06;62.64
63819;BME280;49970;54.976;73.248;2023-01-10T00:47:27;101539.81;;;-27.07;62.77
63819;BME280;49970;54.976;73.248;2023-01-10T00:49:53;101541.88;;;-27.03;62.17
63819;BME280;49970;54.976;73.248;2023-01-10T00:52:20;101528.09;;;-27.08;62.70
63819;BME280;49970;54.976;73.248;2023-01-10T00:54:46;101532.78;;;-27.02;62.43
63819;BME280;49970;54.976;73.248;2023-01-10T00:57:13;101543.63;;;-27.02;62.72
63819;BME280;49970;54.976;73.248;2023-01-10T00:59:39;101544.81;;;-26.98;62.64
63819;BME280;49970;54.976;73.248;2023-01-10T01:02:07;101537.91;;;-27.01;62.54
63819;BME280;49970;54.976;73.248;2023-01-10T01:04:33;101539.53;;;-27.01;62.22
63819;BME280;49970;54.976;73.248;2023-01-10T01:07:00;101540.41;;;-27.01;62.84
63819;BME280;49970;54.976;73.248;2023-01-10T01:09:28;101539.69;;;-27.00;62.73
63819;BME280;49970;54.976;73.248;2023-01-10T01:11:54;101550.66;;;-26.98;62.82
63819;BME280;49970;54.976;73.248;2023-01-10T01:14:22;101539.94;;;-27.05;62.80
63819;BME280;49970;54.976;73.248;2023-01-10T01:16:59;101541.56;;;-27.06;62.50
63819;BME280;49970;54.976;73.248;2023-01-10T01:19:25;101540.41;;;-27.01;62.70
63819;BME280;49970;54.976;73.248;2023-01-10T01:22:02;101531.47;;;-27.07;62.51
63819;BME280;49970;54.976;73.248;2023-01-10T01:24:29;101555.78;;;-26.96;62.29
63819;BME280;49970;54.976;73.248;2023-01-10T01:26:59;101551.53;;;-26.97;62.81
63819;BME280;49970;54.976;73.248;2023-01-10T01:29:31;101553.16;;;-26.98;62.58
63819;BME280;49970;54.976;73.248;2023-01-10T01:32:07;101555.50;;;-26.99;62.68
63819;BME280;49970;54.976;73.248;2023-01-10T01:34:35;101551.25;;;-27.00;62.58
63819;BME280;49970;54.976;73.248;2023-01-10T01:37:01;101561.19;;;-27.00;62.63
63819;BME280;49970;54.976;73.248;2023-01-10T01:39:27;101564.31;;;-27.03;62.35
63819;BME280;49970;54.976;73.248;2023-01-10T01:41:59;101562.53;;;-27.04;62.86
63819;BME280;49970;54.976;73.248;2023-01-10T01:44:34;101560.94;;;-27.03;62.26
63819;BME280;49970;54.976;73.248;2023-01-10T01:47:04;101559.16;;;-27.04;62.12
63819;BME280;49970;54.976;73.248;2023-01-10T01:49:39;101572.34;;;-27.05;62.47
63819;BME280;49970;54.976;73.248;2023-01-10T01:52:31;101566.63;;;-27.04;62.95
63819;BME280;49970;54.976;73.248;2023-01-10T01:54:57;101562.06;;;-27.08;62.61
63819;BME280;49970;54.976;73.248;2023-01-10T01:57:28;101572.94;;;-27.08;62.57
63819;BME280;49970;54.976;73.248;2023-01-10T01:59:56;101565.03;;;-27.12;62.43
63819;BME280;49970;54.976;73.248;2023-01-10T02:02:37;101578.81;;;-27.07;62.86
63819;BME280;49970;54.976;73.248;2023-01-10T02:05:10;101565.34;;;-27.09;62.86
63819;BME280;49970;54.976;73.248;2023-01-10T02:07:53;101560.03;;;-27.12;62.47
63819;BME280;49970;54.976;73.248;2023-01-10T02:12:55;101559.56;;;-27.08;62.39
63819;BME280;49970;54.976;73.248;2023-01-10T02:15:24;101566.34;;;-27.07;62.93
63819;BME280;49970;54.976;73.248;2023-01-10T02:17:50;101572.34;;;-27.05;62.28
63819;BME280;49970;54.976;73.248;2023-01-10T02:20:19;101570.91;;;-27.03;62.70
63819;BME280;49970;54.976;73.248;2023-01-10T02:23:03;101573.66;;;-27.00;62.80
63819;BME280;49970;54.976;73.248;2023-01-10T02:32:04;101574.56;;;-27.00;62.50
63819;BME280;49970;54.976;73.248;2023-01-10T02:35:00;101585.69;;;-26.96;62.99
63819;BME280;49970;54.976;73.248;2023-01-10T02:43:25;101592.91;;;-26.99;62.39
63819;BME280;49970;54.976;73.248;2023-01-10T02:45:58;101596.09;;;-27.00;62.52
63819;BME280;49970;54.976;73.248;2023-01-10T02:48:30;101599.19;;;-27.03;62.23
63819;BME280;49970;54.976;73.248;2023-01-10T02:51:16;101605.19;;;-27.01;62.81
63819;BME280;49970;54.976;73.248;2023-01-10T02:53:47;101607.53;;;-27.02;62.80
63819;BME280;49970;54.976;73.248;2023-01-10T02:56:41;101607.22;;;-27.05;62.81
63819;BME280;49970;54.976;73.248;2023-01-10T03:08:24;101624.69;;;-27.14;62.21
63819;BME280;49970;54.976;73.248;2023-01-10T03:11:05;101627.31;;;-27.12;62.71
63819;BME280;49970;54.976;73.248;2023-01-10T03:13:51;101640.09;;;-27.09;62.98
63819;BME280;49970;54.976;73.248;2023-01-10T03:16:27;101636.53;;;-27.20;62.36
63819;BME280;49970;54.976;73.248;2023-01-10T03:18:58;101636.78;;;-27.26;62.26
63819;BME280;49970;54.976;73.248;2023-01-10T03:21:27;101642.50;;;-27.27;62.85
63819;BME280;49970;54.976;73.248;2023-01-10T03:24:05;101645.31;;;-27.24;62.76
63819;BME280;49970;54.976;73.248;2023-01-10T03:26:55;101649.69;;;-27.21;63.02
63819;BME280;49970;54.976;73.248;2023-01-10T03:29:29;101616.53;;;-27.37;62.72
63819;BME280;49970;54.976;73.248;2023-01-10T03:32:03;101656.75;;;-27.17;62.47
63819;BME280;49970;54.976;73.248;2023-01-10T03:34:31;101655.88;;;-27.17;62.92
63819;BME280;49970;54.976;73.248;2023-01-10T03:37:18;101651.94;;;-27.15;63.11
63819;BME280;49970;54.976;73.248;2023-01-10T03:40:16;101639.75;;;-27.21;62.66
63819;BME280;49970;54.976;73.248;2023-01-10T03:43:04;101652.66;;;-27.16;62.54
63819;BME280;49970;54.976;73.248;2023-01-10T03:46:12;101655.13;;;-27.16;63.01
63819;BME280;49970;54.976;73.248;2023-01-10T03:48:44;101659.25;;;-27.17;62.79
63819;BME280;49970;54.976;73.248;2023-01-10T03:51:13;101654.25;;;-27.17;62.65
63819;BME280;49970;54.976;73.248;2023-01-10T03:53:40;101659.09;;;-27.18;62.87
63819;BME280;49970;54.976;73.248;2023-01-10T03:56:06;101673.19;;;-27.19;62.58
63819;BME280;49970;54.976;73.248;2023-01-10T03:58:33;101662.16;;;-27.21;62.85
63819;BME280;49970;54.976;73.248;2023-01-10T04:00:59;101669.50;;;-27.23;62.71
63819;BME280;49970;54.976;73.248;2023-01-10T04:03:26;101675.94;;;-27.25;62.40
63819;BME280;49970;54.976;73.248;2023-01-10T04:05:52;101676.66;;;-27.26;62.49
63819;BME280;49970;54.976;73.248;2023-01-10T04:08:18;101681.63;;;-27.26;63.03
63819;BME280;49970;54.976;73.248;2023-01-10T04:10:51;101675.13;;;-27.41;62.56
63819;BME280;49970;54.976;73.248;2023-01-10T04:13:18;101682.19;;;-27.37;62.85
63819;BME280;49970;54.976;73.248;2023-01-10T04:15:44;101679.97;;;-27.34;63.28
63819;BME280;49970;54.976;73.248;2023-01-10T04:18:10;101681.91;;;-27.31;63.17
63819;BME280;49970;54.976;73.248;2023-01-10T04:20:37;101677.25;;;-27.28;63.19
63819;BME280;49970;54.976;73.248;2023-01-10T04:23:04;101677.53;;;-27.25;63.22
63819;BME280;49970;54.976;73.248;2023-01-10T04:25:30;101677.69;;;-27.24;62.79
63819;BME280;49970;54.976;73.248;2023-01-10T04:27:56;101668.16;;;-27.28;62.94
63819;BME280;49970;54.976;73.248;2023-01-10T04:30:27;101676.09;;;-27.23;63.09
63819;BME280;49970;54.976;73.248;2023-01-10T04:32:54;101693.38;;;-27.25;62.74
63819;BME280;49970;54.976;73.248;2023-01-10T04:35:20;101684.44;;;-27.23;63.04
63819;BME280;49970;54.976;73.248;2023-01-10T04:37:47;101672.81;;;-27.31;62.83
63819;BME280;49970;54.976;73.248;2023-01-10T04:40:13;101680.28;;;-27.31;62.99
63819;BME280;49970;54.976;73.248;2023-01-10T04:42:41;101695.38;;;-27.29;63.17
63819;BME280;49970;54.976;73.248;2023-01-10T04:45:08;101689.53;;;-27.30;62.77
63819;BME280;49970;54.976;73.248;2023-01-10T04:47:36;101700.78;;;-27.33;63.01
63819;BME280;49970;54.976;73.248;2023-01-10T04:50:02;101693.31;;;-27.33;62.75
63819;BME280;49970;54.976;73.248;2023-01-10T04:52:29;101704.66;;;-27.28;62.79
63819;BME280;49970;54.976;73.248;2023-01-10T04:54:55;101691.97;;;-27.38;62.63
63819;BME280;49970;54.976;73.248;2023-01-10T04:57:32;101713.00;;;-27.28;62.57
63819;BME280;49970;54.976;73.248;2023-01-10T04:59:58;101710.81;;;-27.25;63.33
63819;BME280;49970;54.976;73.248;2023-01-10T05:02:34;101705.09;;;-27.24;63.39
63819;BME280;49970;54.976;73.248;2023-01-10T05:05:07;101714.00;;;-27.26;63.12
63819;BME280;49970;54.976;73.248;2023-01-10T05:07:34;101708.16;;;-27.26;62.71
63819;BME280;49970;54.976;73.248;2023-01-10T05:10:01;101713.72;;;-27.29;62.74
63819;BME280;49970;54.976;73.248;2023-01-10T05:12:33;101719.13;;;-27.33;63.17
63819;BME280;49970;54.976;73.248;2023-01-10T05:15:09;101714.72;;;-27.35;62.80
63819;BME280;49970;54.976;73.248;2023-01-10T05:17:35;101721.44;;;-27.34;62.95
63819;BME280;49970;54.976;73.248;2023-01-10T05:20:01;101706.34;;;-27.36;63.08
63819;BME280;49970;54.976;73.248;2023-01-10T05:22:28;101720.72;;;-27.33;63.06
63819;BME280;49970;54.976;73.248;2023-01-10T05:25:04;101717.19;;;-27.35;63.01
63819;BME280;49970;54.976;73.248;2023-01-10T05:27:31;101719.38;;;-27.38;63.20
63819;BME280;49970;54.976;73.248;2023-01-10T05:29:57;101718.31;;;-27.49;63.34
63819;BME280;49970;54.976;73.248;2023-01-10T05:32:27;101719.50;;;-27.45;63.33
63819;BME280;49970;54.976;73.248;2023-01-10T05:34:54;101709.53;;;-27.45;63.12
63819;BME280;49970;54.976;73.248;2023-01-10T05:37:20;101724.09;;;-27.33;63.36
63819;BME280;49970;54.976;73.248;2023-01-10T05:39:46;101729.69;;;-27.27;63.21
63819;BME280;49970;54.976;73.248;2023-01-10T05:42:13;101725.75;;;-27.25;63.43
63819;BME280;49970;54.976;73.248;2023-01-10T05:44:39;101725.31;;;-27.20;63.43
63819;BME280;49970;54.976;73.248;2023-01-10T05:47:15;101717.41;;;-27.16;63.22
63819;BME280;49970;54.976;73.248;2023-01-10T05:49:45;101734.00;;;-27.08;63.53
63819;BME280;49970;54.976;73.248;2023-01-10T05:52:11;101743.53;;;-27.04;63.07
63819;BME280;49970;54.976;73.248;2023-01-10T05:54:38;101757.59;;;-27.05;63.46
63819;BME280;49970;54.976;73.248;2023-01-10T05:57:04;101746.34;;;-27.10;63.25
63819;BME280;49970;54.976;73.248;2023-01-10T05:59:36;101747.50;;;-27.06;63.09
63819;BME280;49970;54.976;73.248;2023-01-10T06:02:02;101759.13;;;-26.98;63.36
63819;BME280;49970;54.976;73.248;2023-01-10T06:04:34;101749.03;;;-26.91;63.60
63819;BME280;49970;54.976;73.248;2023-01-10T06:07:09;101748.47;;;-26.80;63.54
63819;BME280;49970;54.976;73.248;2023-01-10T06:09:36;101753.34;;;-26.73;63.00
63819;BME280;49970;54.976;73.248;2023-01-10T06:12:02;101714.75;;;-26.85;63.07
63819;BME280;49970;54.976;73.248;2023-01-10T06:14:28;101750.47;;;-26.60;63.63
63819;BME280;49970;54.976;73.248;2023-01-10T06:16:59;101741.78;;;-26.63;63.30
63819;BME280;49970;54.976;73.248;2023-01-10T06:19:35;101761.63;;;-26.56;63.25
63819;BME280;49970;54.976;73.248;2023-01-10T06:22:02;101753.94;;;-26.66;63.10
63819;BME280;49970;54.976;73.248;2023-01-10T06:24:38;101760.41;;;-26.68;62.82
63819;BME280;49970;54.976;73.248;2023-01-10T06:27:09;101754.19;;;-26.81;62.99
63819;BME280;49970;54.976;73.248;2023-01-10T06:29:36;101761.22;;;-26.85;63.19
63819;BME280;49970;54.976;73.248;2023-01-10T06:32:07;101747.84;;;-26.94;63.34
63819;BME280;49970;54.976;73.248;2023-01-10T06:34:43;101752.41;;;-26.90;63.35
63819;BME280;49970;54.976;73.248;2023-01-10T06:37:20;101760.31;;;-26.94;62.56
63819;BME280;49970;54.976;73.248;2023-01-10T06:39:46;101762.22;;;-26.92;62.87
63819;BME280;49970;54.976;73.248;2023-01-10T06:42:12;101768.03;;;-27.00;63.22
63819;BME280;49970;54.976;73.248;2023-01-10T06:44:41;101759.69;;;-27.01;63.40
63819;BME280;49970;54.976;73.248;2023-01-10T06:47:12;101766.19;;;-26.94;63.50
63819;BME280;49970;54.976;73.248;2023-01-10T06:49:49;101763.41;;;-26.88;63.11
63819;BME280;49970;54.976;73.248;2023-01-10T06:52:25;101757.66;;;-26.96;63.15
63819;BME280;49970;54.976;73.248;2023-01-10T06:54:51;101762.38;;;-26.90;63.32
63819;BME280;49970;54.976;73.248;2023-01-10T06:57:18;101754.03;;;-26.91;63.46
63819;BME280;49970;54.976;73.248;2023-01-10T06:59:44;101759.19;;;-26.81;62.82
63819;BME280;49970;54.976;73.248;2023-01-10T07:02:21;101756.59;;;-26.74;63.41
63819;BME280;49970;54.976;73.248;2023-01-10T07:04:53;101750.28;;;-26.70;63.08
63819;BME280;49970;54.976;73.248;2023-01-10T07:07:24;101756.59;;;-26.74;63.23
63819;BME280;49970;54.976;73.248;2023-01-10T07:09:56;101753.34;;;-26.73;63.35
63819;BME280;49970;54.976;73.248;2023-01-10T07:12:24;101758.88;;;-26.84;63.33
63819;BME280;49970;54.976;73.248;2023-01-10T07:14:50;101756.53;;;-26.91;62.84
63819;BME280;49970;54.976;73.248;2023-01-10T07:17:22;101758.25;;;-26.99;63.19
63819;BME280;49970;54.976;73.248;2023-01-10T07:19:48;101763.50;;;-26.96;63.32
63819;BME280;49970;54.976;73.248;2023-01-10T07:22:14;101756.97;;;-26.86;63.70
63819;BME280;49970;54.976;73.248;2023-01-10T07:24:46;101757.13;;;-26.85;63.27
63819;BME280;49970;54.976;73.248;2023-01-10T07:27:13;101754.09;;;-26.74;63.23
63819;BME280;49970;54.976;73.248;2023-01-10T07:29:39;101758.38;;;-26.64;63.44
63819;BME280;49970;54.976;73.248;2023-01-10T07:32:06;101754.25;;;-26.63;63.09
63819;BME280;49970;54.976;73.248;2023-01-10T07:34:32;101749.03;;;-26.58;63.61
63819;BME280;49970;54.976;73.248;2023-01-10T07:36:58;101756.09;;;-26.45;63.38
63819;BME280;49970;54.976;73.248;2023-01-10T07:39:26;101751.09;;;-26.36;63.33
63819;BME280;49970;54.976;73.248;2023-01-10T07:41:53;101753.16;;;-26.32;63.51
63819;BME280;49970;54.976;73.248;2023-01-10T07:44:20;101757.00;;;-26.18;63.62
63819;BME280;49970;54.976;73.248;2023-01-10T07:46:52;101744.50;;;-26.18;63.33
63819;BME280;49970;54.976;73.248;2023-01-10T07:49:18;101761.09;;;-26.10;63.70
63819;BME280;49970;54.976;73.248;2023-01-10T07:51:44;101754.94;;;-26.05;63.47
63819;BME280;49970;54.976;73.248;2023-01-10T07:54:15;101750.69;;;-26.06;63.47
63819;BME280;49970;54.976;73.248;2023-01-10T07:56:45;101739.81;;;-26.15;63.11
63819;BME280;49970;54.976;73.248;2023-01-10T07:59:19;101731.28;;;-26.26;63.14
63819;BME280;49970;54.976;73.248;2023-01-10T08:01:45;101754.94;;;-26.05;63.49
63819;BME280;49970;54.976;73.248;2023-01-10T08:04:13;101763.47;;;-26.03;63.48
63819;BME280;49970;54.976;73.248;2023-01-10T08:06:39;101760.81;;;-26.05;63.39
63819;BME280;49970;54.976;73.248;2023-01-10T08:09:05;101741.13;;;-26.19;63.41
63819;BME280;49970;54.976;73.248;2023-01-10T08:11:32;101754.94;;;-26.05;63.61
63819;BME280;49970;54.976;73.248;2023-01-10T08:13:58;101745.41;;;-26.01;63.41
63819;BME280;49970;54.976;73.248;2023-01-10T08:16:24;101754.06;;;-25.97;63.22
63819;BME280;49970;54.976;73.248;2023-01-10T08:18:55;101754.94;;;-25.97;63.48
63819;BME280;49970;54.976;73.248;2023-01-10T08:21:32;101757.19;;;-25.91;63.52
63819;BME280;49970;54.976;73.248;2023-01-10T08:23:58;101755.13;;;-25.95;63.33
63819;BME280;49970;54.976;73.248;2023-01-10T08:26:25;101751.88;;;-25.94;63.40
63819;BME280;49970;54.976;73.248;2023-01-10T08:28:51;101752.31;;;-25.98;63.63
63819;BME280;49970;54.976;73.248;2023-01-10T08:31:17;101748.06;;;-25.90;63.67
63819;BME280;49970;54.976;73.248;2023-01-10T08:33:43;101746.28;;;-25.91;63.68
63819;BME280;49970;54.976;73.248;2023-01-10T08:36:20;101734.53;;;-25.92;63.77
63819;BME280;49970;54.976;73.248;2023-01-10T08:38:48;101752.00;;;-25.84;63.88
63819;BME280;49970;54.976;73.248;2023-01-10T08:41:15;101748.06;;;-25.82;63.66
63819;BME280;49970;54.976;73.248;2023-01-10T08:43:42;101747.31;;;-25.81;63.54
63819;BME280;49970;54.976;73.248;2023-01-10T08:46:08;101750.25;;;-25.85;63.69
63819;BME280;49970;54.976;73.248;2023-01-10T08:48:34;101764.22;;;-25.78;63.87
63819;BME280;49970;54.976;73.248;2023-01-10T08:51:08;101760.09;;;-25.86;63.61
63819;BME280;49970;54.976;73.248;2023-01-10T08:53:34;101769.06;;;-25.80;63.66
63819;BME280;49970;54.976;73.248;2023-01-10T08:56:02;101762.59;;;-25.78;63.74
63819;BME280;49970;54.976;73.248;2023-01-10T08:58:28;101765.63;;;-25.72;63.68
63819;BME280;49970;54.976;73.248;2023-01-10T09:00:54;101763.31;;;-25.70;63.69
63819;BME280;49970;54.976;73.248;2023-01-10T09:03:20;101765.34;;;-25.66;63.82
63819;BME280;49970;54.976;73.248;2023-01-10T09:05:47;101771.38;;;-25.73;63.76
63819;BME280;49970;54.976;73.248;2023-01-10T09:08:14;101771.84;;;-25.77;63.81
63819;BME280;49970;54.976;73.248;2023-01-10T09:10:40;101779.63;;;-25.74;63.67
63819;BME280;49970;54.976;73.248;2023-01-10T09:13:06;101779.00;;;-25.71;63.73
63819;BME280;49970;54.976;73.248;2023-01-10T09:15:35;101777.13;;;-25.74;63.62
63819;BME280;49970;54.976;73.248;2023-01-10T09:18:05;101772.59;;;-25.86;63.96
63819;BME280;49970;54.976;73.248;2023-01-10T09:20:40;101779.66;;;-25.91;63.66
63819;BME280;49970;54.976;73.248;2023-01-10T09:23:20;101775.97;;;-25.94;63.71
63819;BME280;49970;54.976;73.248;2023-01-10T09:25:50;101751.88;;;-26.11;63.69
63819;BME280;49970;54.976;73.248;2023-01-10T09:28:17;101780.34;;;-25.92;63.57
63819;BME280;49970;54.976;73.248;2023-01-10T09:30:44;101770.97;;;-25.94;63.92
63819;BME280;49970;54.976;73.248;2023-01-10T09:33:11;101788.88;;;-25.81;64.14
63819;BME280;49970;54.976;73.248;2023-01-10T09:35:39;101785.97;;;-25.77;63.96
63819;BME280;49970;54.976;73.248;2023-01-10T09:38:09;101786.06;;;-25.76;64.10
63819;BME280;49970;54.976;73.248;2023-01-10T09:46:07;101799.31;;;-25.77;64.13
63819;BME280;49970;54.976;73.248;2023-01-10T09:48:46;101801.91;;;-25.75;64.27
63819;BME280;49970;54.976;73.248;2023-01-10T09:54:14;101807.34;;;-25.71;64.03
63819;BME280;49970;54.976;73.248;2023-01-10T09:56:43;101801.78;;;-25.68;64.05
63819;BME280;49970;54.976;73.248;2023-01-10T09:59:17;101796.66;;;-25.70;64.08
63819;BME280;49970;54.976;73.248;2023-01-10T10:01:47;101805.03;;;-25.69;64.00
63819;BME280;49970;54.976;73.248;2023-01-10T10:06:50;101803.41;;;-25.68;63.90
63819;BME280;49970;54.976;73.248;2023-01-10T10:09:24;101809.84;;;-25.71;64.23
63819;BME280;49970;54.976;73.248;2023-01-10T10:14:46;101809.59;;;-25.74;63.78
63819;BME280;49970;54.976;73.248;2023-01-10T10:28:27;101842.19;;;-25.72;63.98
63819;BME280;49970;54.976;73.248;2023-01-10T10:33:50;101831.78;;;-25.77;63.88
63819;BME280;49970;54.976;73.248;2023-01-10T10:39:11;101830.16;;;-25.85;64.04
63819;BME280;49970;54.976;73.248;2023-01-10T10:41:43;101836.78;;;-25.85;63.87
63819;BME280;49970;54.976;73.248;2023-01-10T10:44:33;101839.25;;;-25.85;63.86
63819;BME280;49970;54.976;73.248;2023-01-10T10:47:01;101836.47;;;-25.88;64.01
63819;BME280;49970;54.976;73.248;2023-01-10T10:49:42;101833.22;;;-25.96;63.93
63819;BME280;49970;54.976;73.248;2023-01-10T10:52:19;101840.28;;;-25.92;64.22
63819;BME280;49970;54.976;73.248;2023-01-10T10:54:53;101848.06;;;-25.89;63.77
63819;BME280;49970;54.976;73.248;2023-01-10T10:57:33;101841.16;;;-25.91;63.78
63819;BME280;49970;54.976;73.248;2023-01-10T11:00:03;101843.38;;;-25.94;64.03
63819;BME280;49970;54.976;73.248;2023-01-10T11:02:42;101848.63;;;-25.91;63.87
63819;BME280;49970;54.976;73.248;2023-01-10T11:05:17;101842.75;;;-25.92;63.80
63819;BME280;49970;54.976;73.248;2023-01-10T11:07:45;101846.88;;;-25.92;64.27
63819;BME280;49970;54.976;73.248;2023-01-10T11:10:22;101844.22;;;-26.03;64.16
63819;BME280;49970;54.976;73.248;2023-01-10T11:13:13;101853.78;;;-25.99;64.10
63819;BME280;49970;54.976;73.248;2023-01-10T11:15:43;101839.50;;;-26.08;64.04
63819;BME280;49970;54.976;73.248;2023-01-10T11:18:28;101859.19;;;-26.03;64.04
63819;BME280;49970;54.976;73.248;2023-01-10T11:23:36;101857.13;;;-26.07;64.11
63819;BME280;49970;54.976;73.248;2023-01-10T11:26:28;101846.09;;;-26.09;64.12
63819;BME280;49970;54.976;73.248;2023-01-10T11:29:26;101851.84;;;-26.10;63.93
63819;BME280;49970;54.976;73.248;2023-01-10T11:32:08;101840.22;;;-26.18;64.18
63819;BME280;49970;54.976;73.248;2023-01-10T11:34:35;101838.03;;;-26.15;64.00
63819;BME280;49970;54.976;73.248;2023-01-10T11:42:53;101838.59;;;-26.17;64.13
63819;BME280;49970;54.976;73.248;2023-01-10T11:45:20;101848.56;;;-26.17;64.14
63819;BME280;49970;54.976;73.248;2023-01-10T11:50:33;101842.41;;;-26.21;64.27
63819;BME280;49970;54.976;73.248;2023-01-10T11:55:57;101836.22;;;-26.25;64.56
63819;BME280;49970;54.976;73.248;2023-01-10T11:58:29;101821.53;;;-26.30;64.12
63819;BME280;49970;54.976;73.248;2023-01-10T12:00:57;101829.00;;;-26.30;64.20
63819;BME280;49970;54.976;73.248;2023-01-10T12:03:30;101825.66;;;-26.31;64.12
63819;BME280;49970;54.976;73.248;2023-01-10T12:06:06;101806.53;;;-26.39;64.52
63819;BME280;49970;54.976;73.248;2023-01-10T12:08:37;101833.13;;;-26.31;64.05
63819;BME280;49970;54.976;73.248;2023-01-10T12:11:26;101816.22;;;-26.42;64.16
63819;BME280;49970;54.976;73.248;2023-01-10T12:13:56;101826.50;;;-26.39;64.59
63819;BME280;49970;54.976;73.248;2023-01-10T12:16:31;101830.59;;;-26.39;64.32
63819;BME280;49970;54.976;73.248;2023-01-10T12:19:03;101842.97;;;-26.32;64.08
63819;BME280;49970;54.976;73.248;2023-01-10T12:21:43;101849.72;;;-26.31;64.34
63819;BME280;49970;54.976;73.248;2023-01-10T12:24:23;101854.72;;;-26.31;64.40
63819;BME280;49970;54.976;73.248;2023-01-10T12:26:53;101864.81;;;-26.30;64.42
63819;BME280;49970;54.976;73.248;2023-01-10T12:29:24;101861.31;;;-26.32;64.52
63819;BME280;49970;54.976;73.248;2023-01-10T12:31:53;101858.63;;;-26.33;64.57
63819;BME280;49970;54.976;73.248;2023-01-10T12:34:43;101839.53;;;-26.41;64.34
63819;BME280;49970;54.976;73.248;2023-01-10T12:37:25;101856.16;;;-26.33;64.42
63819;BME280;49970;54.976;73.248;2023-01-10T12:43:06;101857.16;;;-26.40;64.41
63819;BME280;49970;54.976;73.248;2023-01-10T12:46:18;101855.00;;;-26.37;64.53
63819;BME280;49970;54.976;73.248;2023-01-10T12:48:54;101849.41;;;-26.34;64.47
63819;BME280;49970;54.976;73.248;2023-01-10T12:51:27;101854.25;;;-26.36;64.24
63819;BME280;49970;54.976;73.248;2023-01-10T12:54:13;101857.75;;;-26.34;64.11
63819;BME280;49970;54.976;73.248;2023-01-10T12:56:49;101859.53;;;-26.33;64.40
63819;BME280;49970;54.976;73.248;2023-01-10T12:59:24;101854.53;;;-26.33;64.64
63819;BME280;49970;54.976;73.248;2023-01-10T13:01:57;101848.22;;;-26.38;64.26
63819;BME280;49970;54.976;73.248;2023-01-10T13:04:28;101847.94;;;-26.41;64.35
63819;BME280;49970;54.976;73.248;2023-01-10T13:06:57;101853.50;;;-26.43;64.20
63819;BME280;49970;54.976;73.248;2023-01-10T13:09:35;101854.06;;;-26.46;64.33
63819;BME280;49970;54.976;73.248;2023-01-10T13:12:23;101855.09;;;-26.53;64.19
63819;BME280;49970;54.976;73.248;2023-01-10T13:15:03;101858.94;;;-26.48;64.49
63819;BME280;49970;54.976;73.248;2023-01-10T13:22:50;101883.41;;;-26.52;64.44
63819;BME280;49970;54.976;73.248;2023-01-10T13:25:35;101881.66;;;-26.53;64.59
63819;BME280;49970;54.976;73.248;2023-01-10T13:28:22;101879.16;;;-26.53;64.76
63819;BME280;49970;54.976;73.248;2023-01-10T13:31:01;101861.81;;;-26.60;64.56
63819;BME280;49970;54.976;73.248;2023-01-10T13:34:00;101869.19;;;-26.53;64.64
63819;BME280;49970;54.976;73.248;2023-01-10T13:36:37;101876.06;;;-26.51;64.59
63819;BME280;49970;54.976;73.248;2023-01-10T13:39:34;101854.19;;;-26.62;64.82
63819;BME280;49970;54.976;73.248;2023-01-10T13:56:37;101868.41;;;-26.61;64.55
63819;BME280;49970;54.976;73.248;2023-01-10T14:00:03;101870.91;;;-26.61;64.86
63819;BME280;49970;54.976;73.248;2023-01-10T14:02:47;101868.53;;;-26.59;64.69
63819;BME280;49970;54.976;73.248;2023-01-10T14:05:16;101824.16;;;-26.79;64.78
63819;BME280;49970;54.976;73.248;2023-01-10T14:07:51;101861.94;;;-26.59;64.67
63819;BME280;49970;54.976;73.248;2023-01-10T14:10:28;101869.44;;;-26.59;65.01
63819;BME280;49970;54.976;73.248;2023-01-10T14:13:01;101870.47;;;-26.57;64.73
63819;BME280;49970;54.976;73.248;2023-01-10T14:15:39;101865.78;;;-26.54;64.56
63819;BME280;49970;54.976;73.248;2023-01-10T14:18:35;101868.44;;;-26.52;64.78
63819;BME280;49970;54.976;73.248;2023-01-10T14:21:06;101765.25;;;-27.12;64.67
63819;BME280;49970;54.976;73.248;2023-01-10T14:23:42;101874.16;;;-26.53;64.74
63819;BME280;49970;54.976;73.248;2023-01-10T14:29:08;101855.66;;;-26.55;64.67
63819;BME280;49970;54.976;73.248;2023-01-10T14:31:43;101866.56;;;-26.46;64.86